createdAt,value
2023-08-25T00:00:11.588Z,5.68
2023-08-25T00:02:39.738Z,2.17
2023-08-25T00:05:08.460Z,4.72
2023-08-25T00:07:36.614Z,3.88
2023-08-25T00:10:05.082Z,3.38
2023-08-25T00:12:33.082Z,3.88
2023-08-25T00:15:02.614Z,3.53
2023-08-25T00:17:30.743Z,5.18
2023-08-25T00:19:59.124Z,5.78
2023-08-25T00:22:27.504Z,2.88
2023-08-25T00:24:57.425Z,3.42
2023-08-25T00:27:25.480Z,3.70
2023-08-25T00:29:54.407Z,4.03
2023-08-25T00:32:24.059Z,2.90
2023-08-25T00:34:52.603Z,4.32
2023-08-25T00:37:20.905Z,4.63
2023-08-25T00:39:49.143Z,3.75
2023-08-25T00:42:17.058Z,2.10
2023-08-25T00:44:45.071Z,5.35
2023-08-25T00:47:13.889Z,2.60
2023-08-25T00:49:44.158Z,2.28
2023-08-25T00:52:13.277Z,4.68
2023-08-25T00:54:42.259Z,5.10
2023-08-25T00:57:10.381Z,4.72
2023-08-25T00:59:39.083Z,4.00
2023-08-25T01:02:07.509Z,3.50
2023-08-25T01:04:35.920Z,4.57
2023-08-25T01:07:05.819Z,3.63
2023-08-25T01:09:34.966Z,3.72
2023-08-25T01:12:06.219Z,4.70
2023-08-25T01:14:43.676Z,3.00
2023-08-25T01:17:15.955Z,5.25
2023-08-25T01:19:53.592Z,2.60
2023-08-25T01:22:29.737Z,2.90
2023-08-25T01:25:05.502Z,3.78
2023-08-25T01:27:36.257Z,5.68
2023-08-25T01:30:04.294Z,5.25
2023-08-25T01:32:32.369Z,6.03
2023-08-25T01:35:00.802Z,3.15
2023-08-25T01:37:33.465Z,3.33
2023-08-25T01:40:09.635Z,3.35
2023-08-25T01:42:42.062Z,2.85
2023-08-25T01:45:11.076Z,3.95
2023-08-25T01:47:40.584Z,5.10
2023-08-25T01:50:12.482Z,3.42
2023-08-25T01:52:41.053Z,5.10
2023-08-25T01:55:12.688Z,4.22
2023-08-25T01:57:42.140Z,4.45
2023-08-25T02:00:10.889Z,2.90
2023-08-25T02:02:38.890Z,2.35
2023-08-25T02:05:07.921Z,4.68
2023-08-25T02:07:36.468Z,4.20
2023-08-25T02:10:04.666Z,2.60
2023-08-25T02:12:32.733Z,2.67
2023-08-25T02:15:02.301Z,7.03
2023-08-25T02:17:30.381Z,7.40
2023-08-25T02:19:58.909Z,2.65
2023-08-25T02:22:26.977Z,4.10
2023-08-25T02:24:55.031Z,5.35
2023-08-25T02:27:23.314Z,4.30
2023-08-25T02:29:51.266Z,3.30
2023-08-25T02:32:20.863Z,5.65
2023-08-25T02:34:49.263Z,4.05
2023-08-25T02:37:17.540Z,3.00
2023-08-25T02:39:45.616Z,8.30
2023-08-25T02:42:14.592Z,7.03
2023-08-25T02:44:42.739Z,5.18
2023-08-25T02:47:11.331Z,10.15
2023-08-25T02:49:41.201Z,3.15
2023-08-25T02:52:09.486Z,5.15
2023-08-25T02:54:38.860Z,4.47
2023-08-25T02:57:07.208Z,5.88
2023-08-25T02:59:35.261Z,3.22
2023-08-25T03:02:03.509Z,4.78
2023-08-25T03:04:31.564Z,3.55
2023-08-25T03:07:02.657Z,6.05
2023-08-25T03:09:31.101Z,6.43
2023-08-25T03:11:59.851Z,6.07
2023-08-25T03:14:29.422Z,9.18
2023-08-25T03:16:59.820Z,5.43
2023-08-25T03:19:28.152Z,6.32
2023-08-25T03:21:56.563Z,7.55
2023-08-25T03:24:26.387Z,4.32
2023-08-25T03:26:55.025Z,7.13
2023-08-25T03:29:23.159Z,3.67
2023-08-25T03:31:51.341Z,8.02
2023-08-25T03:34:20.259Z,3.40
2023-08-25T03:36:48.505Z,3.22
2023-08-25T03:39:16.534Z,6.60
2023-08-25T03:41:46.032Z,5.40
2023-08-25T03:44:14.455Z,3.13
2023-08-25T03:46:42.700Z,5.45
2023-08-25T03:49:12.002Z,6.88
2023-08-25T03:51:40.305Z,6.75
2023-08-25T03:54:08.650Z,6.68
2023-08-25T03:56:37.201Z,6.13
2023-08-25T03:59:07.000Z,10.27
2023-08-25T04:01:35.894Z,5.57
2023-08-25T04:04:04.087Z,5.03
2023-08-25T04:06:32.254Z,3.65
2023-08-25T04:09:00.958Z,5.63
2023-08-25T04:11:28.954Z,9.90
2023-08-25T04:13:57.143Z,5.38
2023-08-25T04:16:26.892Z,5.22
2023-08-25T04:18:54.975Z,5.68
2023-08-25T04:21:23.078Z,4.15
2023-08-25T04:23:51.064Z,6.00
2023-08-25T04:26:19.651Z,5.78
2023-08-25T04:28:48.454Z,6.88
2023-08-25T04:31:16.972Z,3.22
2023-08-25T04:33:46.608Z,6.53
2023-08-25T04:36:14.901Z,4.00
2023-08-25T04:38:42.948Z,6.88
2023-08-25T04:41:11.111Z,6.18
2023-08-25T04:43:39.384Z,3.42
2023-08-25T04:46:09.289Z,10.25
2023-08-25T04:48:38.741Z,3.15
2023-08-25T04:51:10.631Z,4.85
2023-08-25T04:53:39.515Z,10.07
2023-08-25T04:56:07.746Z,4.60
2023-08-25T04:58:36.958Z,3.55
2023-08-25T05:01:05.938Z,5.70
2023-08-25T05:03:34.213Z,3.78
2023-08-25T05:06:02.979Z,6.35
2023-08-25T05:08:32.617Z,6.15
2023-08-25T05:11:01.689Z,4.70
2023-08-25T05:13:29.891Z,4.75
2023-08-25T05:15:58.201Z,8.18
2023-08-25T05:18:26.458Z,9.18
2023-08-25T05:21:00.949Z,7.28
2023-08-25T05:23:29.461Z,4.70
2023-08-25T05:25:59.137Z,5.60
2023-08-25T05:28:28.269Z,6.63
2023-08-25T05:30:56.692Z,7.90
2023-08-25T05:33:24.723Z,5.82
2023-08-25T05:35:52.990Z,5.63
2023-08-25T05:38:22.176Z,4.32
2023-08-25T05:40:50.381Z,6.40
2023-08-25T05:43:20.044Z,6.00
2023-08-25T05:45:48.207Z,9.32
2023-08-25T05:48:16.457Z,6.57
2023-08-25T05:50:44.522Z,9.02
2023-08-25T05:53:12.658Z,5.70
2023-08-25T05:55:41.045Z,6.55
2023-08-25T05:58:12.506Z,4.85
2023-08-25T06:00:41.942Z,5.00
2023-08-25T06:03:10.619Z,3.00
2023-08-25T06:05:38.724Z,5.72
2023-08-25T06:08:07.375Z,2.35
2023-08-25T06:10:36.316Z,4.25
2023-08-25T06:13:04.826Z,5.70
2023-08-25T06:15:32.939Z,5.82
2023-08-25T06:18:02.341Z,3.58
2023-08-25T06:20:31.883Z,5.95
2023-08-25T06:22:59.996Z,4.40
2023-08-25T06:25:28.104Z,6.70
2023-08-25T06:27:56.596Z,6.30
2023-08-25T06:30:25.193Z,6.00
2023-08-25T06:32:53.783Z,2.58
2023-08-25T06:35:23.664Z,6.72
2023-08-25T06:37:52.064Z,6.35
2023-08-25T06:40:21.309Z,3.42
2023-08-25T06:42:50.189Z,5.43
2023-08-25T06:45:18.723Z,3.13
2023-08-25T06:47:47.450Z,3.42
2023-08-25T06:50:16.074Z,5.80
2023-08-25T06:52:45.480Z,6.82
2023-08-25T06:55:14.022Z,7.03
2023-08-25T06:57:42.196Z,3.13
2023-08-25T07:00:13.311Z,2.95
2023-08-25T07:02:43.042Z,4.85
2023-08-25T07:05:11.759Z,5.45
2023-08-25T07:07:39.840Z,4.35
2023-08-25T07:10:10.608Z,3.60
2023-08-25T07:12:38.974Z,5.32
2023-08-25T07:15:08.199Z,2.03
2023-08-25T07:17:36.742Z,2.47
2023-08-25T07:20:06.434Z,4.60
2023-08-25T07:22:34.863Z,2.28
2023-08-25T07:25:03.672Z,2.65
2023-08-25T07:27:33.209Z,3.38
2023-08-25T07:30:01.723Z,3.85
2023-08-25T07:32:30.061Z,3.67
2023-08-25T07:34:58.566Z,2.65
2023-08-25T07:37:27.472Z,3.28
2023-08-25T07:39:57.406Z,4.65
2023-08-25T07:42:25.316Z,3.58
2023-08-25T07:44:54.976Z,9.48
2023-08-25T07:47:23.548Z,4.35
2023-08-25T07:49:52.114Z,5.15
2023-08-25T07:52:20.617Z,1.85
2023-08-25T07:54:48.827Z,4.45
2023-08-25T07:57:17.934Z,3.03
2023-08-25T07:59:46.314Z,3.67
2023-08-25T08:02:16.361Z,3.88
2023-08-25T08:04:45.200Z,2.90
2023-08-25T08:07:13.537Z,2.80
2023-08-25T08:09:41.738Z,3.63
2023-08-25T08:12:10.678Z,4.05
2023-08-25T08:14:45.759Z,4.15
2023-08-25T08:17:16.684Z,3.40
2023-08-25T08:19:46.240Z,3.97
2023-08-25T08:22:14.567Z,2.78
2023-08-25T08:24:50.736Z,3.83
2023-08-25T08:27:20.397Z,3.58
2023-08-25T08:29:49.525Z,2.65
2023-08-25T08:32:19.211Z,2.67
2023-08-25T08:34:48.563Z,2.80
2023-08-25T08:37:16.633Z,4.22
2023-08-25T08:39:45.525Z,5.22
2023-08-25T08:42:15.861Z,5.15
2023-08-25T08:44:48.224Z,3.90
2023-08-25T08:47:19.168Z,5.72
2023-08-25T08:49:48.133Z,4.13
2023-08-25T08:52:18.068Z,2.58
2023-08-25T08:54:46.807Z,4.97
2023-08-25T08:57:16.532Z,4.68
2023-08-25T08:59:45.172Z,4.13
2023-08-25T09:02:16.393Z,3.25
2023-08-25T09:04:47.598Z,3.63
2023-08-25T09:07:16.168Z,5.63
2023-08-25T09:09:49.155Z,5.13
2023-08-25T09:12:20.020Z,4.40
2023-08-25T09:14:48.667Z,4.95
2023-08-25T09:17:17.206Z,4.78
2023-08-25T09:19:46.654Z,4.28
2023-08-25T09:22:19.138Z,4.80
2023-08-25T09:24:47.827Z,3.88
2023-08-25T09:27:33.847Z,3.90
2023-08-25T09:30:05.544Z,5.40
2023-08-25T09:32:34.535Z,5.22
2023-08-25T09:35:14.699Z,5.03
2023-08-25T09:37:43.436Z,5.47
2023-08-25T09:40:14.257Z,8.15
2023-08-25T09:42:42.326Z,3.97
2023-08-25T09:45:11.436Z,3.00
2023-08-25T09:47:39.677Z,4.30
2023-08-25T09:50:09.282Z,3.88
2023-08-25T09:52:41.587Z,3.90
2023-08-25T09:55:11.978Z,7.22
2023-08-25T09:57:41.037Z,4.05
2023-08-25T10:00:11.403Z,3.53
2023-08-25T10:02:39.986Z,6.25
2023-08-25T10:05:11.625Z,5.90
2023-08-25T10:07:43.143Z,5.55
2023-08-25T10:10:12.763Z,4.15
2023-08-25T10:12:46.188Z,5.20
2023-08-25T10:15:17.114Z,4.78
2023-08-25T10:17:50.252Z,3.55
2023-08-25T10:20:19.595Z,5.50
2023-08-25T10:22:50.778Z,3.85
2023-08-25T10:25:21.027Z,5.95
2023-08-25T10:27:49.913Z,7.15
2023-08-25T10:30:18.567Z,6.90
2023-08-25T10:33:02.519Z,5.22
2023-08-25T10:35:44.760Z,4.30
2023-08-25T10:38:40.793Z,3.13
2023-08-25T10:41:21.510Z,5.13
2023-08-25T10:43:53.955Z,8.05
2023-08-25T10:46:32.390Z,4.47
2023-08-25T10:49:14.075Z,4.72
2023-08-25T10:51:42.884Z,9.38
2023-08-25T10:54:25.186Z,5.32
2023-08-25T10:56:54.169Z,5.72
2023-08-25T10:59:23.683Z,5.00
2023-08-25T11:02:00.997Z,8.02
2023-08-25T11:04:31.631Z,5.40
2023-08-25T11:07:01.007Z,7.28
2023-08-25T11:09:36.922Z,4.70
2023-08-25T11:12:09.948Z,3.92
2023-08-25T11:14:40.094Z,4.70
2023-08-25T11:17:10.234Z,2.88
2023-08-25T11:19:41.376Z,3.45
2023-08-25T11:22:13.485Z,7.35
2023-08-25T11:24:43.284Z,2.90
2023-08-25T11:27:16.424Z,4.13
2023-08-25T11:29:46.964Z,3.15
2023-08-25T11:32:15.541Z,3.95
2023-08-25T11:34:44.633Z,2.58
2023-08-25T11:37:14.579Z,6.32
2023-08-25T11:39:47.747Z,2.95
2023-08-25T11:42:22.267Z,2.50
2023-08-25T11:44:51.457Z,3.17
2023-08-25T11:47:20.838Z,2.97
2023-08-25T11:49:50.180Z,3.13
2023-08-25T11:52:18.440Z,5.50
2023-08-25T11:54:48.802Z,2.03
2023-08-25T11:57:17.239Z,2.65
2023-08-25T11:59:48.170Z,2.78
2023-08-25T12:02:17.811Z,2.25
2023-08-25T12:04:59.603Z,4.07
2023-08-25T12:07:30.147Z,2.53
2023-08-25T12:10:02.307Z,3.00
2023-08-25T12:12:34.216Z,2.88
2023-08-25T12:15:02.261Z,3.22
2023-08-25T12:17:31.363Z,3.25
2023-08-25T12:20:00.557Z,2.78
2023-08-25T12:22:29.177Z,1.92
2023-08-25T12:24:57.591Z,1.80
2023-08-25T12:27:27.290Z,4.85
2023-08-25T12:29:55.753Z,3.90
2023-08-25T12:32:24.391Z,2.33
2023-08-25T12:34:52.596Z,1.70
2023-08-25T12:37:21.368Z,3.13
2023-08-25T12:39:51.945Z,4.50
2023-08-25T12:42:21.069Z,2.25
2023-08-25T12:44:50.465Z,1.98
2023-08-25T12:47:18.772Z,2.78
2023-08-25T12:49:47.123Z,2.38
2023-08-25T12:52:17.993Z,4.10
2023-08-25T12:54:46.808Z,4.25
2023-08-25T12:57:15.396Z,4.22
2023-08-25T12:59:43.990Z,5.10
2023-08-25T13:02:15.563Z,4.05
2023-08-25T13:04:43.828Z,2.28
2023-08-25T13:07:13.913Z,2.22
2023-08-25T13:09:42.883Z,3.95
2023-08-25T13:12:11.784Z,4.43
2023-08-25T13:14:40.679Z,4.15
2023-08-25T13:17:08.858Z,3.33
2023-08-25T13:19:39.902Z,3.13
2023-08-25T13:22:09.053Z,2.88
2023-08-25T13:24:37.384Z,2.25
2023-08-25T13:27:06.511Z,2.95
2023-08-25T13:29:34.818Z,2.50
2023-08-25T13:32:03.178Z,2.20
2023-08-25T13:34:31.274Z,2.88
2023-08-25T13:37:00.876Z,2.22
2023-08-25T13:39:29.033Z,4.32
2023-08-25T13:41:57.109Z,2.08
2023-08-25T13:44:25.174Z,8.38
2023-08-25T13:46:53.427Z,2.47
2023-08-25T13:49:21.793Z,3.47
2023-08-25T13:51:49.937Z,2.67
2023-08-25T13:54:20.209Z,3.08
2023-08-25T13:56:48.730Z,6.65
2023-08-25T13:59:17.327Z,3.35
2023-08-25T14:01:45.386Z,3.15
2023-08-25T14:04:13.782Z,2.45
2023-08-25T14:06:42.123Z,2.80
2023-08-25T14:09:10.398Z,4.20
2023-08-25T14:11:40.058Z,2.88
2023-08-25T14:14:10.397Z,4.25
2023-08-25T14:16:38.679Z,3.97
2023-08-25T14:19:08.183Z,2.13
2023-08-25T14:21:36.452Z,3.08
2023-08-25T14:24:05.146Z,2.38
2023-08-25T14:26:33.344Z,2.90
2023-08-25T14:29:04.207Z,2.53
2023-08-25T14:31:32.283Z,2.83
2023-08-25T14:34:00.644Z,4.65
2023-08-25T14:36:29.950Z,3.67
2023-08-25T14:38:59.052Z,1.88
2023-08-25T14:41:27.386Z,3.17
2023-08-25T14:43:55.454Z,1.90
2023-08-25T14:46:27.784Z,3.80
2023-08-25T14:48:56.858Z,2.83
2023-08-25T14:51:25.086Z,4.38
2023-08-25T14:53:54.668Z,2.35
2023-08-25T14:56:22.937Z,3.45
2023-08-25T14:58:50.954Z,4.70
2023-08-25T15:01:19.865Z,3.75
2023-08-25T15:03:49.493Z,3.97
2023-08-25T15:06:17.841Z,2.60
2023-08-25T15:08:45.979Z,3.78
2023-08-25T15:11:14.772Z,5.35
2023-08-25T15:13:42.955Z,2.95
2023-08-25T15:16:11.117Z,3.20
2023-08-25T15:18:40.407Z,4.30
2023-08-25T15:21:10.143Z,2.58
2023-08-25T15:23:38.262Z,2.80
2023-08-25T15:26:06.614Z,4.00
2023-08-25T15:28:35.095Z,2.75
2023-08-25T15:31:07.907Z,3.17
2023-08-25T15:33:37.445Z,4.53
2023-08-25T15:36:07.483Z,3.40
2023-08-25T15:38:37.463Z,4.25
2023-08-25T15:41:08.673Z,3.70
2023-08-25T15:43:37.263Z,2.47
2023-08-25T15:46:05.761Z,3.40
2023-08-25T15:48:37.176Z,3.22
2023-08-25T15:51:07.057Z,3.08
2023-08-25T15:53:37.588Z,2.25
2023-08-25T15:56:06.711Z,3.42
2023-08-25T15:58:34.824Z,2.92
2023-08-25T16:01:04.435Z,2.17
2023-08-25T16:03:33.840Z,2.75
2023-08-25T16:06:05.327Z,2.47
2023-08-25T16:08:34.563Z,2.67
2023-08-25T16:11:07.712Z,3.17
2023-08-25T16:13:36.865Z,2.72
2023-08-25T16:16:05.689Z,3.17
2023-08-25T16:18:34.490Z,2.38
2023-08-25T16:21:04.054Z,3.80
2023-08-25T16:23:34.529Z,3.33
2023-08-25T16:26:04.863Z,1.90
2023-08-25T16:28:33.752Z,1.95
2023-08-25T16:31:05.269Z,3.75
2023-08-25T16:33:33.712Z,3.42
2023-08-25T16:36:04.487Z,3.70
2023-08-25T16:38:33.759Z,2.72
2023-08-25T16:41:03.493Z,2.63
2023-08-25T16:43:31.638Z,2.03
2023-08-25T16:45:59.665Z,2.95
2023-08-25T16:48:27.954Z,3.83
2023-08-25T16:50:56.050Z,2.55
2023-08-25T16:53:25.564Z,3.15
2023-08-25T16:55:54.572Z,2.42
2023-08-25T16:58:25.965Z,3.97
2023-08-25T17:00:54.092Z,1.70
2023-08-25T17:03:22.633Z,3.42
2023-08-25T17:05:51.256Z,3.58
2023-08-25T17:08:20.899Z,4.32
2023-08-25T17:10:50.727Z,4.05
2023-08-25T17:13:19.226Z,4.72
2023-08-25T17:15:49.182Z,4.35
2023-08-25T17:18:17.942Z,6.13
2023-08-25T17:20:46.148Z,6.05
2023-08-25T17:23:14.476Z,7.03
2023-08-25T17:25:42.850Z,7.57
2023-08-25T17:28:11.325Z,5.72
2023-08-25T17:30:39.446Z,6.30
2023-08-25T17:33:09.338Z,3.45
2023-08-25T17:35:43.100Z,4.88
2023-08-25T17:40:42.900Z,5.88
2023-08-25T17:43:11.670Z,4.35
2023-08-25T17:45:40.087Z,5.07
2023-08-25T17:48:10.622Z,5.45
2023-08-25T17:50:39.408Z,6.35
2023-08-25T17:53:08.329Z,3.10
2023-08-25T17:55:36.879Z,3.72
2023-08-25T17:58:05.710Z,3.13
2023-08-25T18:00:34.093Z,4.40
2023-08-25T18:03:02.228Z,3.80
2023-08-25T18:05:33.274Z,4.20
2023-08-25T18:08:01.512Z,3.00
2023-08-25T18:10:30.139Z,2.63
2023-08-25T18:12:58.258Z,4.40
2023-08-25T18:15:26.817Z,3.92
2023-08-25T18:17:55.016Z,6.25
2023-08-25T18:20:23.589Z,3.60
2023-08-25T18:22:53.803Z,3.78
2023-08-25T18:25:22.354Z,4.18
2023-08-25T18:27:50.478Z,6.78
2023-08-25T18:30:21.179Z,5.45
2023-08-25T18:32:50.980Z,8.27
2023-08-25T18:35:19.303Z,4.30
2023-08-25T18:37:47.685Z,3.20
2023-08-25T18:40:17.708Z,3.83
2023-08-25T18:42:45.952Z,4.10
2023-08-25T18:45:14.353Z,6.28
2023-08-25T18:47:42.480Z,8.07
2023-08-25T18:50:15.259Z,3.67
2023-08-25T18:52:43.547Z,7.55
2023-08-25T18:55:12.635Z,3.85
2023-08-25T18:57:42.285Z,3.83
2023-08-25T19:00:11.804Z,3.20
2023-08-25T19:02:39.984Z,3.80
2023-08-25T19:05:09.166Z,4.43
2023-08-25T19:07:37.671Z,3.58
2023-08-25T19:10:06.526Z,4.07
2023-08-25T19:12:34.802Z,3.42
2023-08-25T19:15:05.176Z,3.90
2023-08-25T19:17:34.594Z,5.78
2023-08-25T19:20:03.264Z,4.88
2023-08-25T19:22:31.510Z,4.63
2023-08-25T19:24:59.690Z,5.00
2023-08-25T19:27:28.120Z,5.22
2023-08-25T19:29:57.036Z,7.80
2023-08-25T19:32:26.466Z,3.70
2023-08-25T19:34:54.628Z,5.38
2023-08-25T19:37:23.067Z,3.95
2023-08-25T19:39:53.538Z,4.63
2023-08-25T19:42:22.221Z,8.38
2023-08-25T19:44:50.872Z,3.85
2023-08-25T19:47:19.220Z,4.45
2023-08-25T19:49:50.394Z,4.05
2023-08-25T19:52:19.101Z,10.20
2023-08-25T19:54:47.237Z,6.80
2023-08-25T19:57:17.405Z,3.67
2023-08-25T19:59:45.568Z,2.90
2023-08-25T20:02:13.714Z,5.20
2023-08-25T20:04:41.819Z,5.32
2023-08-25T20:07:11.291Z,3.08
2023-08-25T20:09:39.422Z,5.40
2023-08-25T20:12:08.652Z,5.97
2023-08-25T20:14:37.611Z,6.32
2023-08-25T20:17:06.196Z,5.07
2023-08-25T20:19:35.641Z,4.70
2023-08-25T20:22:05.119Z,4.72
2023-08-25T20:24:36.110Z,7.05
2023-08-25T20:27:04.416Z,8.32
2023-08-25T20:29:32.821Z,5.15
2023-08-25T20:32:01.191Z,4.85
2023-08-25T20:34:29.513Z,5.80
2023-08-25T20:36:57.819Z,5.40
2023-08-25T20:39:26.334Z,6.30
2023-08-25T20:41:57.617Z,4.45
2023-08-25T20:44:26.506Z,5.30
2023-08-25T20:46:54.663Z,4.90
2023-08-25T20:49:24.972Z,6.13
2023-08-25T20:51:54.078Z,5.45
2023-08-25T20:54:22.890Z,6.07
2023-08-25T20:56:51.098Z,5.15
2023-08-25T20:59:20.742Z,5.35
2023-08-25T21:01:49.452Z,6.43
2023-08-25T21:04:17.837Z,6.28
2023-08-25T21:06:46.039Z,5.35
2023-08-25T21:09:14.741Z,3.42
2023-08-25T21:11:44.144Z,4.28
2023-08-25T21:14:12.510Z,4.47
2023-08-25T21:16:42.217Z,4.97
2023-08-25T21:19:11.416Z,5.05
2023-08-25T21:21:41.141Z,5.45
2023-08-25T21:24:11.315Z,5.10
2023-08-25T21:26:40.058Z,5.00
2023-08-25T21:29:08.924Z,7.93
2023-08-25T21:31:37.860Z,4.45
2023-08-25T21:34:09.168Z,4.40
2023-08-25T21:36:38.067Z,5.60
2023-08-25T21:39:06.864Z,4.40
2023-08-25T21:41:35.649Z,5.72
2023-08-25T21:44:04.158Z,4.32
2023-08-25T21:46:37.437Z,5.70
2023-08-25T21:49:08.486Z,3.90
2023-08-25T21:51:36.735Z,9.93
2023-08-25T21:54:07.055Z,7.35
2023-08-25T21:56:39.358Z,10.35
2023-08-25T21:59:07.583Z,6.55
2023-08-25T22:01:36.898Z,9.77
2023-08-25T22:04:05.949Z,10.40
2023-08-25T22:06:36.902Z,7.68
2023-08-25T22:09:06.283Z,8.63
2023-08-25T22:11:34.887Z,7.50
2023-08-25T22:14:03.748Z,8.77
2023-08-25T22:16:34.869Z,6.95
2023-08-25T22:19:04.496Z,5.82
2023-08-25T22:21:33.280Z,6.60
2023-08-25T22:24:03.313Z,8.07
2023-08-25T22:26:31.531Z,5.45
2023-08-25T22:28:59.758Z,6.30
2023-08-25T22:31:27.872Z,7.38
2023-08-25T22:36:28.680Z,9.45
2023-08-25T22:38:57.405Z,9.00
2023-08-25T22:41:28.079Z,7.13
2023-08-25T22:43:56.520Z,7.68
2023-08-25T22:46:24.711Z,7.35
2023-08-25T22:48:53.758Z,11.30
2023-08-25T22:51:21.988Z,26.90
2023-08-25T22:53:50.473Z,37.40
2023-08-25T22:56:18.834Z,41.60
2023-08-25T22:58:48.927Z,84.47
2023-08-25T23:01:18.602Z,157.57
2023-08-25T23:03:47.050Z,143.40
2023-08-25T23:06:15.936Z,61.67
2023-08-25T23:08:44.347Z,226.35
2023-08-25T23:11:13.883Z,145.80
2023-08-25T23:13:42.441Z,161.15
2023-08-25T23:16:12.104Z,158.60
2023-08-25T23:18:41.829Z,283.88
2023-08-25T23:21:10.363Z,171.82
2023-08-25T23:23:41.424Z,516.45
2023-08-25T23:26:10.239Z,153.05
2023-08-25T23:28:39.029Z,179.50
2023-08-25T23:31:11.376Z,159.43
2023-08-25T23:33:41.184Z,269.58
2023-08-25T23:36:09.562Z,373.15
2023-08-25T23:38:38.036Z,150.40
2023-08-25T23:41:06.333Z,438.00
2023-08-25T23:43:35.293Z,95.18
2023-08-25T23:46:07.728Z,45.60
2023-08-25T23:48:36.187Z,39.95
2023-08-25T23:51:06.234Z,64.63
2023-08-25T23:53:34.769Z,41.25
2023-08-25T23:56:03.091Z,110.93
2023-08-25T23:58:31.655Z,159.80
